createdAt,value
2019-03-23T00:01:20.768Z,16.03
2019-03-23T00:03:47.025Z,16.01
2019-03-23T00:06:13.327Z,15.98
2019-03-23T00:08:39.638Z,15.96
2019-03-23T00:11:05.947Z,15.94
2019-03-23T00:13:32.258Z,15.91
2019-03-23T00:15:58.573Z,15.91
2019-03-23T00:18:24.880Z,15.88
2019-03-23T00:20:51.188Z,15.87
2019-03-23T00:23:17.493Z,15.83
2019-03-23T00:25:43.801Z,15.83
2019-03-23T00:28:10.106Z,15.81
2019-03-23T00:30:36.423Z,15.78
2019-03-23T00:33:02.730Z,15.77
2019-03-23T00:35:29.057Z,15.75
2019-03-23T00:37:55.362Z,15.73
2019-03-23T00:40:21.666Z,15.72
2019-03-23T00:42:47.972Z,15.71
2019-03-23T00:45:14.278Z,15.68
2019-03-23T00:47:40.590Z,15.66
2019-03-23T00:50:06.897Z,15.64
2019-03-23T00:52:33.204Z,15.63
2019-03-23T00:54:59.502Z,15.57
2019-03-23T00:57:25.832Z,15.59
2019-03-23T00:59:52.134Z,15.55
2019-03-23T01:02:18.471Z,15.55
2019-03-23T01:04:44.772Z,15.54
2019-03-23T01:07:11.073Z,15.51
2019-03-23T01:09:37.387Z,15.48
2019-03-23T01:12:03.690Z,15.46
2019-03-23T01:14:30.009Z,15.44
2019-03-23T01:16:56.319Z,15.43
2019-03-23T01:19:22.630Z,15.40
2019-03-23T01:21:48.928Z,15.38
2019-03-23T01:24:15.257Z,15.36
2019-03-23T01:26:41.560Z,15.34
2019-03-23T01:29:07.865Z,15.32
2019-03-23T01:31:34.170Z,15.30
2019-03-23T01:34:00.471Z,15.29
2019-03-23T01:36:26.779Z,15.27
2019-03-23T01:38:53.101Z,15.25
2019-03-23T01:41:19.420Z,15.23
2019-03-23T01:43:45.711Z,15.21
2019-03-23T01:46:12.043Z,15.21
2019-03-23T01:48:38.343Z,15.19
2019-03-23T01:51:04.648Z,15.18
2019-03-23T01:53:30.960Z,15.18
2019-03-23T01:55:57.271Z,15.15
2019-03-23T01:58:23.576Z,15.14
2019-03-23T02:00:49.889Z,15.12
2019-03-23T02:03:16.201Z,15.11
2019-03-23T02:05:42.510Z,15.10
2019-03-23T02:08:08.808Z,15.08
2019-03-23T02:10:35.145Z,15.08
2019-03-23T02:13:01.449Z,15.04
2019-03-23T02:15:27.761Z,15.04
2019-03-23T02:17:54.064Z,15.02
2019-03-23T02:20:20.393Z,15.00
2019-03-23T02:22:46.702Z,15.00
2019-03-23T02:25:13.008Z,14.97
2019-03-23T02:27:39.325Z,14.95
2019-03-23T02:30:05.634Z,14.94
2019-03-23T02:32:31.944Z,14.90
2019-03-23T02:34:58.247Z,14.90
2019-03-23T02:37:27.958Z,14.88
2019-03-23T02:39:50.935Z,14.85
2019-03-23T02:42:17.242Z,14.84
2019-03-23T02:44:43.541Z,14.84
2019-03-23T02:47:09.865Z,14.82
2019-03-23T02:49:36.179Z,14.79
2019-03-23T02:52:02.481Z,14.78
2019-03-23T02:54:28.801Z,14.77
2019-03-23T02:56:55.103Z,14.75
2019-03-23T02:59:21.411Z,14.72
2019-03-23T03:01:47.714Z,14.70
2019-03-23T03:04:14.057Z,14.68
2019-03-23T03:06:40.357Z,14.67
2019-03-23T03:09:06.660Z,14.65
2019-03-23T03:11:32.977Z,14.63
2019-03-23T03:13:59.283Z,14.62
2019-03-23T03:16:25.591Z,14.60
2019-03-23T03:18:51.897Z,14.57
2019-03-23T03:21:18.213Z,14.55
2019-03-23T03:23:44.526Z,14.54
2019-03-23T03:26:10.863Z,14.52
2019-03-23T03:28:37.165Z,14.50
2019-03-23T03:31:03.494Z,14.48
2019-03-23T03:33:29.777Z,14.44
2019-03-23T03:35:56.083Z,14.45
2019-03-23T03:38:22.396Z,14.44
2019-03-23T03:40:48.701Z,14.42
2019-03-23T03:43:15.012Z,14.39
2019-03-23T03:45:41.318Z,14.38
2019-03-23T03:48:07.616Z,14.35
2019-03-23T03:50:33.928Z,14.33
2019-03-23T03:53:00.235Z,14.30
2019-03-23T03:55:26.570Z,14.27
2019-03-23T03:57:52.874Z,14.25
2019-03-23T04:00:19.213Z,14.24
2019-03-23T04:02:45.513Z,14.22
2019-03-23T04:05:11.812Z,14.21
2019-03-23T04:07:38.116Z,14.19
2019-03-23T04:10:04.426Z,14.18
2019-03-23T04:12:30.732Z,14.16
2019-03-23T04:14:57.043Z,14.14
2019-03-23T04:17:23.378Z,14.12
2019-03-23T04:19:49.689Z,14.10
2019-03-23T04:22:15.981Z,14.08
2019-03-23T04:24:42.282Z,14.07
2019-03-23T04:27:08.588Z,14.06
2019-03-23T04:29:34.901Z,14.02
2019-03-23T04:32:01.201Z,14.04
2019-03-23T04:34:27.543Z,14.04
2019-03-23T04:36:53.853Z,14.04
2019-03-23T04:39:20.151Z,14.04
2019-03-23T04:41:46.464Z,14.04
2019-03-23T04:44:12.811Z,14.06
2019-03-23T04:46:39.128Z,14.05
2019-03-23T04:49:05.429Z,14.10
2019-03-23T04:51:31.738Z,14.13
2019-03-23T04:53:58.054Z,14.19
2019-03-23T04:56:24.387Z,14.23
2019-03-23T04:58:50.691Z,14.26
2019-03-23T05:01:16.994Z,14.31
2019-03-23T05:03:43.308Z,14.35
2019-03-23T05:06:09.620Z,14.41
2019-03-23T05:08:35.927Z,14.45
2019-03-23T05:11:02.247Z,14.50
2019-03-23T05:13:28.551Z,14.58
2019-03-23T05:15:54.863Z,14.65
2019-03-23T05:18:21.218Z,14.72
2019-03-23T05:20:47.528Z,14.81
2019-03-23T05:23:13.844Z,14.89
2019-03-23T05:25:40.216Z,14.99
2019-03-23T05:28:06.543Z,15.09
2019-03-23T05:30:32.849Z,15.15
2019-03-23T05:32:59.167Z,15.28
2019-03-23T05:35:25.478Z,15.38
2019-03-23T05:37:51.789Z,15.48
2019-03-23T05:40:18.102Z,15.61
2019-03-23T05:42:44.410Z,15.72
2019-03-23T05:45:10.719Z,15.83
2019-03-23T05:47:37.067Z,15.92
2019-03-23T05:50:03.429Z,16.06
2019-03-23T05:52:29.764Z,16.16
2019-03-23T05:54:56.078Z,16.30
2019-03-23T05:57:22.413Z,16.41
2019-03-23T05:59:48.732Z,16.50
2019-03-23T06:02:15.038Z,16.67
2019-03-23T06:04:41.683Z,16.76
2019-03-23T06:07:07.984Z,16.93
2019-03-23T06:09:34.315Z,17.07
2019-03-23T06:12:00.624Z,17.21
2019-03-23T06:14:26.931Z,17.34
2019-03-23T06:16:53.248Z,17.48
2019-03-23T06:19:19.562Z,17.64
2019-03-23T06:21:45.890Z,17.78
2019-03-23T06:24:12.207Z,17.93
2019-03-23T06:26:38.522Z,18.08
2019-03-23T06:29:04.843Z,18.24
2019-03-23T06:31:31.158Z,18.41
2019-03-23T06:33:57.463Z,18.58
2019-03-23T06:36:23.812Z,18.73
2019-03-23T06:38:50.123Z,18.89
2019-03-23T06:41:16.461Z,19.07
2019-03-23T06:43:42.774Z,19.25
2019-03-23T06:46:09.090Z,19.08
2019-03-23T06:48:35.400Z,18.26
2019-03-23T06:51:03.283Z,17.92
2019-03-23T06:53:28.021Z,17.63
2019-03-23T06:55:54.330Z,17.65
2019-03-23T06:58:20.659Z,17.67
2019-03-23T07:00:46.979Z,17.80
2019-03-23T07:03:13.294Z,17.94
2019-03-23T07:05:39.601Z,17.87
2019-03-23T07:08:05.906Z,17.93
2019-03-23T07:10:32.215Z,18.12
2019-03-23T07:12:58.520Z,18.40
2019-03-23T07:15:24.833Z,18.50
2019-03-23T07:17:51.139Z,18.66
2019-03-23T07:20:17.446Z,18.57
2019-03-23T07:22:43.766Z,18.59
2019-03-23T07:25:10.993Z,18.65
2019-03-23T07:27:37.513Z,18.83
2019-03-23T07:30:03.830Z,19.03
2019-03-23T07:32:30.145Z,19.22
2019-03-23T07:34:56.451Z,19.31
2019-03-23T07:37:22.771Z,19.54
2019-03-23T07:39:49.112Z,19.65
2019-03-23T07:42:15.443Z,19.86
2019-03-23T07:44:41.757Z,20.05
2019-03-23T07:47:08.062Z,20.18
2019-03-23T07:49:34.396Z,20.34
2019-03-23T07:52:00.730Z,20.35
2019-03-23T07:54:27.036Z,20.40
2019-03-23T07:56:53.354Z,20.51
2019-03-23T07:59:19.661Z,20.74
2019-03-23T08:01:45.968Z,20.96
2019-03-23T08:04:12.303Z,21.18
2019-03-23T08:06:38.613Z,21.32
2019-03-23T08:09:04.935Z,21.44
2019-03-23T08:11:31.249Z,21.55
2019-03-23T08:13:57.558Z,21.40
2019-03-23T08:16:23.880Z,21.54
2019-03-23T08:18:50.188Z,21.78
2019-03-23T08:21:16.499Z,21.89
2019-03-23T08:23:42.805Z,22.02
2019-03-23T08:26:09.124Z,21.98
2019-03-23T08:28:35.433Z,22.15
2019-03-23T08:31:01.746Z,22.19
2019-03-23T08:33:28.055Z,22.34
2019-03-23T08:35:54.363Z,22.59
2019-03-23T08:38:20.709Z,22.81
2019-03-23T08:40:47.020Z,22.89
2019-03-23T08:43:13.319Z,22.87
2019-03-23T08:45:39.648Z,22.98
2019-03-23T08:48:05.944Z,23.03
2019-03-23T08:50:32.279Z,23.06
2019-03-23T08:52:58.580Z,23.20
2019-03-23T08:55:24.893Z,23.31
2019-03-23T08:57:51.214Z,23.50
2019-03-23T09:00:17.532Z,23.62
2019-03-23T09:02:43.843Z,23.78
2019-03-23T09:05:10.153Z,23.99
2019-03-23T09:07:36.469Z,24.15
2019-03-23T09:10:02.805Z,24.30
2019-03-23T09:12:29.104Z,24.39
2019-03-23T09:14:55.582Z,24.29
2019-03-23T09:17:21.914Z,24.34
2019-03-23T09:19:48.287Z,24.11
2019-03-23T09:22:14.592Z,24.06
2019-03-23T09:24:40.999Z,24.15
2019-03-23T09:27:07.303Z,24.32
2019-03-23T09:29:33.682Z,24.44
2019-03-23T09:31:59.988Z,24.52
2019-03-23T09:34:26.342Z,24.56
2019-03-23T09:36:52.615Z,24.64
2019-03-23T09:39:18.949Z,24.63
2019-03-23T09:41:45.253Z,24.68
2019-03-23T09:44:11.647Z,24.69
2019-03-23T09:46:37.988Z,24.62
2019-03-23T09:49:04.352Z,24.60
2019-03-23T09:51:30.661Z,24.47
2019-03-23T09:53:57.060Z,24.06
2019-03-23T09:56:23.374Z,23.56
2019-03-23T09:58:49.688Z,23.67
2019-03-23T10:01:16.022Z,23.86
2019-03-23T10:03:42.965Z,24.24
2019-03-23T10:06:08.695Z,24.48
2019-03-23T10:08:35.002Z,24.70
2019-03-23T10:11:01.368Z,24.82
2019-03-23T10:13:27.811Z,24.90
2019-03-23T10:15:54.120Z,24.97
2019-03-23T10:18:20.438Z,24.89
2019-03-23T10:20:46.740Z,24.92
2019-03-23T10:23:13.043Z,24.99
2019-03-23T10:25:39.356Z,25.02
2019-03-23T10:28:05.664Z,25.02
2019-03-23T10:30:32.145Z,24.88
2019-03-23T10:32:58.451Z,24.66
2019-03-23T10:35:24.761Z,24.54
2019-03-23T10:37:51.087Z,24.67
2019-03-23T10:40:17.608Z,24.57
2019-03-23T10:42:43.833Z,24.71
2019-03-23T10:45:10.103Z,24.94
2019-03-23T10:47:36.530Z,25.02
2019-03-23T10:50:02.716Z,24.89
2019-03-23T10:52:29.025Z,24.61
2019-03-23T10:54:55.469Z,24.57
2019-03-23T10:57:21.783Z,24.71
2019-03-23T10:59:48.183Z,24.97
2019-03-23T11:02:14.523Z,25.12
2019-03-23T11:04:40.836Z,25.23
2019-03-23T11:07:07.144Z,25.25
2019-03-23T11:09:33.460Z,25.30
2019-03-23T11:11:59.791Z,25.42
2019-03-23T11:14:26.104Z,25.28
2019-03-23T11:16:52.417Z,24.89
2019-03-23T11:19:18.733Z,24.73
2019-03-23T11:21:45.040Z,24.65
2019-03-23T11:24:11.363Z,24.60
2019-03-23T11:26:37.667Z,24.56
2019-03-23T11:29:03.972Z,24.42
2019-03-23T11:31:31.092Z,24.63
2019-03-23T11:33:56.605Z,24.98
2019-03-23T11:36:22.904Z,25.22
2019-03-23T11:38:49.219Z,25.34
2019-03-23T11:41:15.528Z,25.42
2019-03-23T11:43:41.837Z,25.49
2019-03-23T11:46:08.160Z,25.47
2019-03-23T11:48:34.466Z,25.47
2019-03-23T11:51:00.787Z,25.51
2019-03-23T11:53:27.122Z,25.28
2019-03-23T11:55:53.429Z,25.11
2019-03-23T11:58:19.735Z,25.12
2019-03-23T12:00:46.043Z,25.12
2019-03-23T12:03:12.423Z,25.11
2019-03-23T12:05:38.723Z,25.14
2019-03-23T12:08:05.037Z,25.19
2019-03-23T12:10:31.345Z,25.21
2019-03-23T12:12:57.709Z,25.23
2019-03-23T12:15:24.013Z,25.22
2019-03-23T12:17:50.321Z,25.24
2019-03-23T12:20:16.635Z,25.18
2019-03-23T12:22:42.957Z,24.96
2019-03-23T12:25:09.309Z,24.88
2019-03-23T12:27:35.622Z,24.79
2019-03-23T12:30:07.030Z,24.82
2019-03-23T12:32:28.243Z,24.92
2019-03-23T12:34:54.724Z,24.73
2019-03-23T12:37:21.112Z,24.53
2019-03-23T12:39:47.386Z,24.56
2019-03-23T12:42:13.697Z,24.48
2019-03-23T12:44:40.000Z,24.37
2019-03-23T12:47:06.319Z,24.35
2019-03-23T12:49:32.621Z,24.40
2019-03-23T12:51:58.991Z,24.48
2019-03-23T12:54:25.321Z,24.47
2019-03-23T12:56:51.619Z,24.26
2019-03-23T12:59:17.932Z,24.13
2019-03-23T13:01:44.333Z,24.12
2019-03-23T13:04:10.661Z,24.23
2019-03-23T13:06:36.959Z,24.33
2019-03-23T13:09:03.272Z,24.36
2019-03-23T13:11:34.951Z,24.37
2019-03-23T13:13:55.893Z,24.41
2019-03-23T13:16:22.201Z,24.44
2019-03-23T13:18:48.514Z,24.35
2019-03-23T13:21:14.821Z,24.38
2019-03-23T13:23:41.130Z,24.36
2019-03-23T13:26:07.454Z,24.32
2019-03-23T13:28:33.753Z,24.34
2019-03-23T13:31:00.069Z,24.28
2019-03-23T13:33:26.378Z,24.26
2019-03-23T13:35:52.688Z,24.18
2019-03-23T13:38:19.006Z,24.15
2019-03-23T13:40:45.311Z,24.14
2019-03-23T13:43:11.629Z,24.00
2019-03-23T13:45:42.650Z,24.00
2019-03-23T13:48:04.249Z,23.92
2019-03-23T13:50:30.575Z,23.89
2019-03-23T13:52:56.885Z,23.79
2019-03-23T13:55:23.195Z,23.76
2019-03-23T13:57:49.510Z,23.77
2019-03-23T14:00:15.835Z,23.66
2019-03-23T14:02:42.149Z,23.58
2019-03-23T14:05:15.711Z,23.53
2019-03-23T14:07:34.797Z,23.49
2019-03-23T14:10:01.173Z,23.44
2019-03-23T14:12:27.487Z,23.36
2019-03-23T14:14:53.799Z,23.34
2019-03-23T14:17:20.105Z,23.34
2019-03-23T14:19:46.411Z,23.34
2019-03-23T14:22:12.720Z,23.29
2019-03-23T14:24:39.054Z,23.24
2019-03-23T14:27:05.360Z,23.27
2019-03-23T14:29:31.676Z,23.24
2019-03-23T14:31:57.989Z,23.26
2019-03-23T14:34:24.307Z,23.30
2019-03-23T14:36:50.655Z,23.31
2019-03-23T14:39:16.935Z,23.26
2019-03-23T14:41:43.257Z,23.11
2019-03-23T14:44:10.229Z,23.07
2019-03-23T14:46:37.072Z,22.99
2019-03-23T14:49:03.386Z,22.93
2019-03-23T14:51:29.686Z,22.88
2019-03-23T14:53:56.000Z,22.76
2019-03-23T14:56:22.311Z,22.70
2019-03-23T14:58:48.639Z,22.66
2019-03-23T15:01:14.963Z,22.59
2019-03-23T15:03:41.272Z,22.54
2019-03-23T15:06:07.584Z,22.45
2019-03-23T15:08:33.893Z,22.40
2019-03-23T15:11:00.211Z,22.42
2019-03-23T15:13:26.523Z,22.44
2019-03-23T15:15:52.829Z,22.48
2019-03-23T15:18:19.167Z,22.42
2019-03-23T15:20:45.500Z,22.37
2019-03-23T15:23:11.843Z,22.31
2019-03-23T15:25:39.534Z,22.28
2019-03-23T15:28:04.597Z,22.24
2019-03-23T15:30:30.924Z,22.20
2019-03-23T15:32:57.231Z,22.18
2019-03-23T15:35:23.541Z,22.19
2019-03-23T15:37:49.846Z,22.19
2019-03-23T15:40:16.188Z,22.26
2019-03-23T15:42:42.558Z,22.25
2019-03-23T15:45:08.863Z,22.14
2019-03-23T15:47:35.172Z,22.12
2019-03-23T15:50:01.513Z,22.22
2019-03-23T15:52:27.825Z,22.24
2019-03-23T15:54:54.143Z,22.20
2019-03-23T15:57:20.440Z,22.15
2019-03-23T15:59:46.766Z,22.16
2019-03-23T16:02:13.106Z,22.16
2019-03-23T16:04:39.415Z,22.20
2019-03-23T16:07:05.835Z,22.27
2019-03-23T16:09:32.162Z,22.29
2019-03-23T16:11:58.479Z,22.33
2019-03-23T16:14:24.797Z,22.27
2019-03-23T16:16:51.127Z,21.88
2019-03-23T16:19:17.433Z,21.51
2019-03-23T16:21:43.741Z,21.24
2019-03-23T16:24:10.075Z,21.07
2019-03-23T16:26:36.412Z,20.77
2019-03-23T16:29:02.732Z,20.56
2019-03-23T16:31:29.074Z,20.42
2019-03-23T16:33:55.381Z,20.37
2019-03-23T16:36:21.684Z,20.26
2019-03-23T16:38:48.020Z,20.16
2019-03-23T16:41:14.325Z,20.14
2019-03-23T16:43:40.662Z,20.17
2019-03-23T16:46:07.119Z,20.15
2019-03-23T16:48:33.507Z,19.99
2019-03-23T16:50:59.821Z,19.92
2019-03-23T16:53:26.132Z,19.88
2019-03-23T16:55:52.453Z,19.86
2019-03-23T16:58:18.758Z,19.89
2019-03-23T17:00:45.110Z,19.86
2019-03-23T17:03:11.420Z,19.81
2019-03-23T17:05:37.751Z,19.71
2019-03-23T17:08:04.071Z,19.75
2019-03-23T17:10:30.443Z,19.75
2019-03-23T17:12:56.754Z,19.64
2019-03-23T17:15:23.064Z,19.53
2019-03-23T17:17:49.399Z,19.41
2019-03-23T17:20:15.715Z,19.38
2019-03-23T17:22:42.041Z,19.37
2019-03-23T17:25:08.358Z,19.32
2019-03-23T17:27:34.700Z,19.27
2019-03-23T17:30:01.056Z,19.17
2019-03-23T17:32:27.371Z,19.13
2019-03-23T17:34:53.681Z,19.21
2019-03-23T17:37:19.988Z,19.48
2019-03-23T17:39:46.304Z,19.67
2019-03-23T17:42:12.645Z,19.79
2019-03-23T17:44:38.942Z,19.86
2019-03-23T17:47:05.249Z,19.89
2019-03-23T17:49:31.564Z,19.91
2019-03-23T17:51:57.895Z,19.90
2019-03-23T17:54:24.226Z,19.92
2019-03-23T17:56:50.539Z,19.92
2019-03-23T17:59:16.878Z,19.93
2019-03-23T18:01:43.193Z,19.92
2019-03-23T18:04:09.508Z,19.86
2019-03-23T18:06:35.829Z,19.93
2019-03-23T18:09:02.144Z,19.93
2019-03-23T18:11:28.450Z,19.93
2019-03-23T18:13:54.755Z,19.93
2019-03-23T18:16:21.065Z,19.92
2019-03-23T18:18:47.380Z,19.90
2019-03-23T18:21:13.717Z,19.90
2019-03-23T18:23:40.049Z,19.88
2019-03-23T18:26:06.356Z,19.85
2019-03-23T18:28:32.689Z,19.86
2019-03-23T18:30:58.992Z,19.85
2019-03-23T18:33:25.333Z,19.84
2019-03-23T18:35:51.646Z,19.70
2019-03-23T18:38:21.125Z,19.81
2019-03-23T18:40:47.437Z,19.79
2019-03-23T18:43:13.740Z,19.77
2019-03-23T18:45:40.057Z,19.76
2019-03-23T18:48:06.396Z,19.74
2019-03-23T18:50:32.707Z,19.72
2019-03-23T18:52:59.019Z,19.69
2019-03-23T18:55:25.352Z,19.70
2019-03-23T18:57:51.664Z,19.68
2019-03-23T19:00:17.971Z,19.67
2019-03-23T19:02:44.284Z,19.66
2019-03-23T19:05:10.592Z,19.65
2019-03-23T19:07:36.911Z,19.63
2019-03-23T19:10:03.225Z,19.62
2019-03-23T19:12:29.534Z,19.58
2019-03-23T19:14:55.843Z,19.59
2019-03-23T19:17:22.183Z,19.58
2019-03-23T19:19:48.657Z,19.57
2019-03-23T19:22:14.804Z,19.57
2019-03-23T19:24:41.122Z,19.52
2019-03-23T19:27:07.433Z,19.54
2019-03-23T19:29:33.757Z,19.52
2019-03-23T19:32:01.882Z,19.50
2019-03-23T19:34:26.467Z,19.49
2019-03-23T19:36:52.787Z,19.49
2019-03-23T19:39:19.096Z,19.46
2019-03-23T19:41:45.401Z,19.45
2019-03-23T19:44:11.714Z,19.43
2019-03-23T19:46:38.022Z,19.40
2019-03-23T19:49:04.325Z,19.41
2019-03-23T19:51:30.662Z,19.38
2019-03-23T19:53:56.975Z,19.39
2019-03-23T19:56:23.284Z,19.36
2019-03-23T19:58:49.591Z,19.36
2019-03-23T20:01:15.902Z,19.34
2019-03-23T20:03:42.214Z,19.32
2019-03-23T20:06:08.526Z,19.32
2019-03-23T20:08:34.970Z,19.29
2019-03-23T20:11:01.280Z,19.28
2019-03-23T20:13:27.594Z,19.26
2019-03-23T20:15:53.905Z,19.24
2019-03-23T20:18:20.247Z,19.23
2019-03-23T20:20:46.521Z,19.20
2019-03-23T20:23:12.832Z,19.19
2019-03-23T20:25:39.913Z,19.18
2019-03-23T20:28:05.468Z,19.15
2019-03-23T20:30:31.813Z,19.13
2019-03-23T20:32:58.395Z,19.12
2019-03-23T20:35:24.720Z,19.12
2019-03-23T20:37:51.028Z,19.09
2019-03-23T20:40:17.331Z,19.08
2019-03-23T20:42:43.937Z,19.06
2019-03-23T20:45:09.958Z,19.05
2019-03-23T20:47:36.261Z,19.03
2019-03-23T20:50:02.568Z,19.00
2019-03-23T20:52:28.876Z,19.00
2019-03-23T20:54:55.185Z,18.98
2019-03-23T20:57:24.063Z,18.95
2019-03-23T20:59:47.958Z,18.93
2019-03-23T21:02:14.270Z,18.88
2019-03-23T21:04:40.586Z,18.89
2019-03-23T21:07:06.894Z,18.87
2019-03-23T21:09:33.229Z,18.85
2019-03-23T21:11:59.536Z,18.83
2019-03-23T21:14:25.835Z,18.87
2019-03-23T21:16:52.151Z,18.91
2019-03-23T21:19:18.461Z,18.91
2019-03-23T21:21:44.772Z,18.90
2019-03-23T21:24:11.096Z,18.90
2019-03-23T21:26:37.429Z,18.88
2019-03-23T21:29:03.797Z,18.83
2019-03-23T21:31:30.125Z,18.80
2019-03-23T21:33:56.439Z,18.74
2019-03-23T21:36:22.796Z,18.73
2019-03-23T21:38:49.065Z,18.70
2019-03-23T21:41:15.374Z,18.67
2019-03-23T21:43:41.680Z,18.64
2019-03-23T21:46:07.986Z,18.62
2019-03-23T21:48:34.327Z,18.60
2019-03-23T21:51:00.626Z,18.63
2019-03-23T21:53:26.935Z,18.62
2019-03-23T21:55:53.247Z,18.59
2019-03-23T21:58:19.557Z,18.55
2019-03-23T22:00:45.875Z,18.52
2019-03-23T22:03:12.175Z,18.50
2019-03-23T22:05:38.553Z,18.47
2019-03-23T22:08:04.834Z,18.44
2019-03-23T22:10:31.142Z,18.41
2019-03-23T22:12:57.551Z,18.39
2019-03-23T22:15:23.886Z,18.37
2019-03-23T22:17:50.219Z,18.33
2019-03-23T22:20:16.518Z,18.29
2019-03-23T22:22:42.822Z,18.25
2019-03-23T22:25:09.129Z,18.22
2019-03-23T22:27:35.467Z,18.19
2019-03-23T22:30:01.859Z,18.16
2019-03-23T22:32:28.209Z,18.12
2019-03-23T22:34:54.509Z,18.08
2019-03-23T22:37:20.864Z,18.05
2019-03-23T22:39:47.128Z,18.02
2019-03-23T22:42:13.465Z,17.98
2019-03-23T22:44:39.775Z,17.96
2019-03-23T22:47:06.087Z,17.93
2019-03-23T22:49:32.415Z,17.91
2019-03-23T22:51:58.734Z,17.89
2019-03-23T22:54:25.055Z,17.85
2019-03-23T22:56:51.366Z,17.82
2019-03-23T22:59:17.760Z,17.79
2019-03-23T23:01:44.030Z,17.75
2019-03-23T23:04:10.342Z,17.73
2019-03-23T23:06:36.644Z,17.69
2019-03-23T23:09:02.949Z,17.65
2019-03-23T23:11:29.254Z,17.63
2019-03-23T23:13:55.563Z,17.59
2019-03-23T23:16:21.864Z,17.57
2019-03-23T23:18:48.186Z,17.54
2019-03-23T23:21:14.528Z,17.53
2019-03-23T23:23:40.804Z,17.48
2019-03-23T23:26:07.106Z,17.49
2019-03-23T23:28:33.417Z,17.46
2019-03-23T23:30:59.731Z,17.43
2019-03-23T23:33:26.107Z,17.43
2019-03-23T23:35:52.484Z,17.41
2019-03-23T23:38:18.796Z,17.40
2019-03-23T23:40:45.102Z,17.38
2019-03-23T23:43:11.435Z,17.36
2019-03-23T23:45:37.742Z,17.34
2019-03-23T23:48:04.051Z,17.32
2019-03-23T23:50:30.363Z,17.30
2019-03-23T23:52:56.679Z,17.27
2019-03-23T23:55:23.004Z,17.25
2019-03-23T23:57:49.307Z,17.21
